sensor_id;sensor_type;location;lat;lon;timestamp;P1;durP1;ratioP1;P2;durP2;ratioP2
37407;SDS011;24866;50.248;8.252;2023-06-10T00:00:52;13.13;;;11.05;;
37407;SDS011;24866;50.248;8.252;2023-06-10T00:03:24;14.98;;;10.32;;
37407;SDS011;24866;50.248;8.252;2023-06-10T00:05:54;12.55;;;11.25;;
37407;SDS011;24866;50.248;8.252;2023-06-10T00:08:25;12.98;;;10.90;;
37407;SDS011;24866;50.248;8.252;2023-06-10T00:10:59;13.80;;;10.45;;
37407;SDS011;24866;50.248;8.252;2023-06-10T00:13:29;10.65;;;9.15;;
37407;SDS011;24866;50.248;8.252;2023-06-10T00:15:59;13.75;;;10.30;;
37407;SDS011;24866;50.248;8.252;2023-06-10T00:18:29;12.75;;;10.15;;
37407;SDS011;24866;50.248;8.252;2023-06-10T00:20:59;10.75;;;8.65;;
37407;SDS011;24866;50.248;8.252;2023-06-10T00:23:35;12.75;;;10.05;;
37407;SDS011;24866;50.248;8.252;2023-06-10T00:26:06;10.48;;;8.82;;
37407;SDS011;24866;50.248;8.252;2023-06-10T00:28:36;10.82;;;9.55;;
37407;SDS011;24866;50.248;8.252;2023-06-10T00:31:06;12.25;;;9.25;;
37407;SDS011;24866;50.248;8.252;2023-06-10T00:33:36;11.13;;;9.38;;
37407;SDS011;24866;50.248;8.252;2023-06-10T00:36:06;10.07;;;8.93;;
37407;SDS011;24866;50.248;8.252;2023-06-10T00:38:37;12.82;;;9.43;;
37407;SDS011;24866;50.248;8.252;2023-06-10T00:41:08;15.23;;;10.30;;
37407;SDS011;24866;50.248;8.252;2023-06-10T00:43:38;10.85;;;9.10;;
37407;SDS011;24866;50.248;8.252;2023-06-10T00:46:08;13.70;;;9.90;;
37407;SDS011;24866;50.248;8.252;2023-06-10T00:48:39;11.52;;;9.48;;
37407;SDS011;24866;50.248;8.252;2023-06-10T00:51:10;11.20;;;9.68;;
37407;SDS011;24866;50.248;8.252;2023-06-10T00:53:42;12.43;;;9.75;;
37407;SDS011;24866;50.248;8.252;2023-06-10T00:56:13;13.20;;;9.82;;
37407;SDS011;24866;50.248;8.252;2023-06-10T00:58:43;10.32;;;9.07;;
37407;SDS011;24866;50.248;8.252;2023-06-10T01:01:14;11.55;;;9.20;;
37407;SDS011;24866;50.248;8.252;2023-06-10T01:03:44;11.70;;;9.00;;
37407;SDS011;24866;50.248;8.252;2023-06-10T01:06:15;12.68;;;11.30;;
37407;SDS011;24866;50.248;8.252;2023-06-10T01:08:56;11.77;;;10.02;;
37407;SDS011;24866;50.248;8.252;2023-06-10T01:11:34;13.20;;;11.00;;
37407;SDS011;24866;50.248;8.252;2023-06-10T01:14:05;13.23;;;9.60;;
37407;SDS011;24866;50.248;8.252;2023-06-10T01:19:08;13.07;;;9.82;;
37407;SDS011;24866;50.248;8.252;2023-06-10T01:21:42;12.32;;;11.10;;
37407;SDS011;24866;50.248;8.252;2023-06-10T01:24:16;11.70;;;10.00;;
37407;SDS011;24866;50.248;8.252;2023-06-10T01:26:48;9.93;;;8.93;;
37407;SDS011;24866;50.248;8.252;2023-06-10T01:31:56;11.20;;;8.80;;
37407;SDS011;24866;50.248;8.252;2023-06-10T01:34:31;10.32;;;9.27;;
37407;SDS011;24866;50.248;8.252;2023-06-10T01:37:03;12.32;;;10.55;;
37407;SDS011;24866;50.248;8.252;2023-06-10T01:39:33;11.60;;;9.73;;
37407;SDS011;24866;50.248;8.252;2023-06-10T01:42:05;12.55;;;9.98;;
37407;SDS011;24866;50.248;8.252;2023-06-10T01:44:35;12.38;;;9.60;;
37407;SDS011;24866;50.248;8.252;2023-06-10T01:47:07;11.30;;;10.00;;
37407;SDS011;24866;50.248;8.252;2023-06-10T01:49:37;12.45;;;9.52;;
37407;SDS011;24866;50.248;8.252;2023-06-10T01:52:09;10.68;;;9.48;;
37407;SDS011;24866;50.248;8.252;2023-06-10T01:54:39;10.60;;;9.48;;
37407;SDS011;24866;50.248;8.252;2023-06-10T01:57:08;11.00;;;9.82;;
37407;SDS011;24866;50.248;8.252;2023-06-10T01:59:39;10.25;;;9.15;;
37407;SDS011;24866;50.248;8.252;2023-06-10T02:02:12;12.45;;;9.68;;
37407;SDS011;24866;50.248;8.252;2023-06-10T02:04:42;11.00;;;9.63;;
37407;SDS011;24866;50.248;8.252;2023-06-10T02:07:13;11.60;;;8.93;;
37407;SDS011;24866;50.248;8.252;2023-06-10T02:09:43;12.55;;;9.25;;
37407;SDS011;24866;50.248;8.252;2023-06-10T02:12:13;11.57;;;9.38;;
37407;SDS011;24866;50.248;8.252;2023-06-10T02:14:43;12.77;;;9.93;;
37407;SDS011;24866;50.248;8.252;2023-06-10T02:17:12;12.85;;;9.75;;
37407;SDS011;24866;50.248;8.252;2023-06-10T02:19:42;14.15;;;10.27;;
37407;SDS011;24866;50.248;8.252;2023-06-10T02:22:16;12.80;;;9.43;;
37407;SDS011;24866;50.248;8.252;2023-06-10T02:24:46;10.80;;;8.82;;
37407;SDS011;24866;50.248;8.252;2023-06-10T02:27:16;12.25;;;9.30;;
37407;SDS011;24866;50.248;8.252;2023-06-10T02:29:47;10.98;;;9.63;;
37407;SDS011;24866;50.248;8.252;2023-06-10T02:32:17;11.65;;;9.15;;
37407;SDS011;24866;50.248;8.252;2023-06-10T02:34:47;9.73;;;8.73;;
37407;SDS011;24866;50.248;8.252;2023-06-10T02:37:18;10.50;;;8.93;;
37407;SDS011;24866;50.248;8.252;2023-06-10T02:39:48;11.23;;;9.55;;
37407;SDS011;24866;50.248;8.252;2023-06-10T02:53:08;9.65;;;8.40;;
37407;SDS011;24866;50.248;8.252;2023-06-10T02:55:37;11.40;;;9.40;;
37407;SDS011;24866;50.248;8.252;2023-06-10T02:58:08;10.32;;;9.32;;
37407;SDS011;24866;50.248;8.252;2023-06-10T03:00:38;12.80;;;9.18;;
37407;SDS011;24866;50.248;8.252;2023-06-10T03:03:09;11.07;;;9.32;;
37407;SDS011;24866;50.248;8.252;2023-06-10T03:05:40;10.05;;;8.25;;
37407;SDS011;24866;50.248;8.252;2023-06-10T03:08:14;9.25;;;8.20;;
37407;SDS011;24866;50.248;8.252;2023-06-10T03:10:44;11.10;;;9.32;;
37407;SDS011;24866;50.248;8.252;2023-06-10T03:13:14;11.23;;;8.05;;
37407;SDS011;24866;50.248;8.252;2023-06-10T03:15:44;11.38;;;9.60;;
37407;SDS011;24866;50.248;8.252;2023-06-10T03:18:14;13.07;;;9.93;;
37407;SDS011;24866;50.248;8.252;2023-06-10T03:20:44;11.60;;;9.25;;
37407;SDS011;24866;50.248;8.252;2023-06-10T03:23:16;11.23;;;8.50;;
37407;SDS011;24866;50.248;8.252;2023-06-10T03:25:46;10.73;;;9.53;;
37407;SDS011;24866;50.248;8.252;2023-06-10T03:28:16;11.30;;;9.15;;
37407;SDS011;24866;50.248;8.252;2023-06-10T03:30:46;10.80;;;8.55;;
37407;SDS011;24866;50.248;8.252;2023-06-10T03:33:16;11.68;;;8.70;;
37407;SDS011;24866;50.248;8.252;2023-06-10T03:35:46;9.52;;;8.50;;
37407;SDS011;24866;50.248;8.252;2023-06-10T03:38:18;11.88;;;9.75;;
37407;SDS011;24866;50.248;8.252;2023-06-10T03:40:48;10.27;;;9.18;;
37407;SDS011;24866;50.248;8.252;2023-06-10T03:43:17;11.48;;;9.50;;
37407;SDS011;24866;50.248;8.252;2023-06-10T03:45:48;10.80;;;9.20;;
37407;SDS011;24866;50.248;8.252;2023-06-10T03:48:18;15.18;;;9.10;;
37407;SDS011;24866;50.248;8.252;2023-06-10T03:50:48;9.98;;;8.95;;
37407;SDS011;24866;50.248;8.252;2023-06-10T03:53:20;11.93;;;8.50;;
37407;SDS011;24866;50.248;8.252;2023-06-10T03:55:50;10.90;;;8.75;;
37407;SDS011;24866;50.248;8.252;2023-06-10T03:58:20;11.20;;;8.65;;
37407;SDS011;24866;50.248;8.252;2023-06-10T04:00:49;10.68;;;8.85;;
37407;SDS011;24866;50.248;8.252;2023-06-10T04:03:19;10.27;;;9.13;;
37407;SDS011;24866;50.248;8.252;2023-06-10T04:05:50;12.32;;;9.38;;
37407;SDS011;24866;50.248;8.252;2023-06-10T04:10:56;9.82;;;8.45;;
37407;SDS011;24866;50.248;8.252;2023-06-10T04:13:26;10.95;;;8.27;;
37407;SDS011;24866;50.248;8.252;2023-06-10T04:15:56;10.98;;;9.73;;
37407;SDS011;24866;50.248;8.252;2023-06-10T04:18:26;9.60;;;8.10;;
37407;SDS011;24866;50.248;8.252;2023-06-10T04:20:56;12.27;;;8.85;;
37407;SDS011;24866;50.248;8.252;2023-06-10T04:23:27;11.73;;;9.75;;
37407;SDS011;24866;50.248;8.252;2023-06-10T04:25:57;12.52;;;9.45;;
37407;SDS011;24866;50.248;8.252;2023-06-10T04:28:27;13.20;;;9.68;;
37407;SDS011;24866;50.248;8.252;2023-06-10T04:30:57;11.25;;;10.07;;
37407;SDS011;24866;50.248;8.252;2023-06-10T04:33:27;11.88;;;9.05;;
37407;SDS011;24866;50.248;8.252;2023-06-10T04:35:57;12.93;;;9.93;;
37407;SDS011;24866;50.248;8.252;2023-06-10T04:38:29;15.65;;;10.95;;
37407;SDS011;24866;50.248;8.252;2023-06-10T04:40:59;14.75;;;9.40;;
37407;SDS011;24866;50.248;8.252;2023-06-10T04:43:29;12.55;;;10.35;;
37407;SDS011;24866;50.248;8.252;2023-06-10T04:45:59;11.10;;;9.77;;
37407;SDS011;24866;50.248;8.252;2023-06-10T04:48:29;10.60;;;9.50;;
37407;SDS011;24866;50.248;8.252;2023-06-10T04:50:59;11.27;;;9.40;;
37407;SDS011;24866;50.248;8.252;2023-06-10T04:53:30;10.48;;;9.23;;
37407;SDS011;24866;50.248;8.252;2023-06-10T04:56:00;10.20;;;9.13;;
37407;SDS011;24866;50.248;8.252;2023-06-10T04:58:30;10.63;;;9.00;;
37407;SDS011;24866;50.248;8.252;2023-06-10T05:01:00;11.73;;;9.32;;
37407;SDS011;24866;50.248;8.252;2023-06-10T05:03:30;10.30;;;9.18;;
37407;SDS011;24866;50.248;8.252;2023-06-10T05:06:00;13.15;;;11.57;;
37407;SDS011;24866;50.248;8.252;2023-06-10T05:08:31;11.52;;;10.35;;
37407;SDS011;24866;50.248;8.252;2023-06-10T05:11:01;12.57;;;9.80;;
37407;SDS011;24866;50.248;8.252;2023-06-10T05:13:31;12.18;;;9.85;;
37407;SDS011;24866;50.248;8.252;2023-06-10T05:16:01;11.93;;;8.98;;
37407;SDS011;24866;50.248;8.252;2023-06-10T05:18:31;16.92;;;9.82;;
37407;SDS011;24866;50.248;8.252;2023-06-10T05:21:00;11.82;;;10.57;;
37407;SDS011;24866;50.248;8.252;2023-06-10T05:23:32;12.98;;;9.30;;
37407;SDS011;24866;50.248;8.252;2023-06-10T05:26:02;12.10;;;8.85;;
37407;SDS011;24866;50.248;8.252;2023-06-10T05:28:32;11.05;;;9.13;;
37407;SDS011;24866;50.248;8.252;2023-06-10T05:31:02;11.82;;;10.23;;
37407;SDS011;24866;50.248;8.252;2023-06-10T05:33:32;11.45;;;9.27;;
37407;SDS011;24866;50.248;8.252;2023-06-10T05:36:02;11.07;;;9.73;;
37407;SDS011;24866;50.248;8.252;2023-06-10T05:38:34;10.18;;;8.93;;
37407;SDS011;24866;50.248;8.252;2023-06-10T05:41:03;10.38;;;9.25;;
37407;SDS011;24866;50.248;8.252;2023-06-10T05:43:33;12.25;;;9.07;;
37407;SDS011;24866;50.248;8.252;2023-06-10T05:46:03;11.32;;;9.40;;
37407;SDS011;24866;50.248;8.252;2023-06-10T05:48:33;13.18;;;8.80;;
37407;SDS011;24866;50.248;8.252;2023-06-10T05:51:03;11.48;;;8.93;;
37407;SDS011;24866;50.248;8.252;2023-06-10T05:53:34;10.55;;;9.23;;
37407;SDS011;24866;50.248;8.252;2023-06-10T05:56:04;12.27;;;9.25;;
37407;SDS011;24866;50.248;8.252;2023-06-10T05:58:34;11.32;;;8.85;;
37407;SDS011;24866;50.248;8.252;2023-06-10T06:01:04;12.93;;;9.85;;
37407;SDS011;24866;50.248;8.252;2023-06-10T06:03:34;12.68;;;9.60;;
37407;SDS011;24866;50.248;8.252;2023-06-10T06:06:04;11.00;;;9.88;;
37407;SDS011;24866;50.248;8.252;2023-06-10T06:08:36;12.20;;;9.55;;
37407;SDS011;24866;50.248;8.252;2023-06-10T06:11:06;12.98;;;8.65;;
37407;SDS011;24866;50.248;8.252;2023-06-10T06:13:35;12.40;;;9.23;;
37407;SDS011;24866;50.248;8.252;2023-06-10T06:16:05;11.45;;;9.10;;
37407;SDS011;24866;50.248;8.252;2023-06-10T06:18:35;11.98;;;9.13;;
37407;SDS011;24866;50.248;8.252;2023-06-10T06:21:05;13.38;;;9.85;;
37407;SDS011;24866;50.248;8.252;2023-06-10T06:23:36;10.20;;;8.57;;
37407;SDS011;24866;50.248;8.252;2023-06-10T06:26:06;10.27;;;9.18;;
37407;SDS011;24866;50.248;8.252;2023-06-10T06:28:36;11.85;;;8.98;;
37407;SDS011;24866;50.248;8.252;2023-06-10T06:31:06;14.52;;;9.68;;
37407;SDS011;24866;50.248;8.252;2023-06-10T06:33:36;11.15;;;8.85;;
37407;SDS011;24866;50.248;8.252;2023-06-10T06:36:06;12.30;;;9.10;;
37407;SDS011;24866;50.248;8.252;2023-06-10T06:38:37;11.15;;;8.88;;
37407;SDS011;24866;50.248;8.252;2023-06-10T06:41:07;10.45;;;8.48;;
37407;SDS011;24866;50.248;8.252;2023-06-10T06:43:37;10.60;;;8.55;;
37407;SDS011;24866;50.248;8.252;2023-06-10T06:46:07;9.10;;;8.20;;
37407;SDS011;24866;50.248;8.252;2023-06-10T06:48:37;10.02;;;7.70;;
37407;SDS011;24866;50.248;8.252;2023-06-10T06:51:07;12.70;;;8.10;;
37407;SDS011;24866;50.248;8.252;2023-06-10T06:53:38;8.15;;;6.82;;
37407;SDS011;24866;50.248;8.252;2023-06-10T06:56:12;11.25;;;8.50;;
37407;SDS011;24866;50.248;8.252;2023-06-10T06:58:42;9.38;;;7.45;;
37407;SDS011;24866;50.248;8.252;2023-06-10T07:01:12;14.00;;;8.63;;
37407;SDS011;24866;50.248;8.252;2023-06-10T07:03:42;10.98;;;7.43;;
37407;SDS011;24866;50.248;8.252;2023-06-10T07:06:12;9.40;;;7.55;;
37407;SDS011;24866;50.248;8.252;2023-06-10T07:08:43;12.30;;;8.30;;
37407;SDS011;24866;50.248;8.252;2023-06-10T07:11:13;10.68;;;8.27;;
37407;SDS011;24866;50.248;8.252;2023-06-10T07:13:43;10.02;;;7.60;;
37407;SDS011;24866;50.248;8.252;2023-06-10T07:16:14;9.15;;;7.88;;
37407;SDS011;24866;50.248;8.252;2023-06-10T07:18:44;10.05;;;7.85;;
37407;SDS011;24866;50.248;8.252;2023-06-10T07:21:14;10.48;;;7.68;;
37407;SDS011;24866;50.248;8.252;2023-06-10T07:23:45;10.48;;;8.20;;
37407;SDS011;24866;50.248;8.252;2023-06-10T07:26:15;11.65;;;7.90;;
37407;SDS011;24866;50.248;8.252;2023-06-10T07:28:45;8.73;;;7.68;;
37407;SDS011;24866;50.248;8.252;2023-06-10T07:31:15;9.30;;;7.07;;
37407;SDS011;24866;50.248;8.252;2023-06-10T07:33:46;10.75;;;7.43;;
37407;SDS011;24866;50.248;8.252;2023-06-10T07:36:16;8.90;;;7.45;;
37407;SDS011;24866;50.248;8.252;2023-06-10T07:38:48;10.65;;;8.90;;
37407;SDS011;24866;50.248;8.252;2023-06-10T07:41:18;10.80;;;7.25;;
37407;SDS011;24866;50.248;8.252;2023-06-10T07:43:48;10.85;;;7.68;;
37407;SDS011;24866;50.248;8.252;2023-06-10T07:46:22;10.18;;;8.13;;
37407;SDS011;24866;50.248;8.252;2023-06-10T07:48:53;10.80;;;7.50;;
37407;SDS011;24866;50.248;8.252;2023-06-10T07:51:23;9.52;;;7.80;;
37407;SDS011;24866;50.248;8.252;2023-06-10T07:53:54;8.60;;;6.82;;
37407;SDS011;24866;50.248;8.252;2023-06-10T07:56:24;13.20;;;7.95;;
37407;SDS011;24866;50.248;8.252;2023-06-10T07:58:54;10.20;;;7.68;;
37407;SDS011;24866;50.248;8.252;2023-06-10T08:01:24;9.38;;;7.55;;
37407;SDS011;24866;50.248;8.252;2023-06-10T08:03:54;8.38;;;7.53;;
37407;SDS011;24866;50.248;8.252;2023-06-10T08:06:24;10.82;;;7.75;;
37407;SDS011;24866;50.248;8.252;2023-06-10T08:08:56;11.75;;;7.63;;
37407;SDS011;24866;50.248;8.252;2023-06-10T08:11:26;11.18;;;7.95;;
37407;SDS011;24866;50.248;8.252;2023-06-10T08:13:57;12.00;;;8.35;;
37407;SDS011;24866;50.248;8.252;2023-06-10T08:16:27;8.93;;;7.50;;
37407;SDS011;24866;50.248;8.252;2023-06-10T08:18:57;9.98;;;7.68;;
37407;SDS011;24866;50.248;8.252;2023-06-10T08:21:27;8.32;;;7.22;;
37407;SDS011;24866;50.248;8.252;2023-06-10T08:23:59;10.23;;;7.95;;
37407;SDS011;24866;50.248;8.252;2023-06-10T08:26:28;8.23;;;7.35;;
37407;SDS011;24866;50.248;8.252;2023-06-10T08:29:00;9.68;;;8.27;;
37407;SDS011;24866;50.248;8.252;2023-06-10T08:31:29;10.48;;;7.85;;
37407;SDS011;24866;50.248;8.252;2023-06-10T08:34:00;9.35;;;7.43;;
37407;SDS011;24866;50.248;8.252;2023-06-10T08:36:30;8.65;;;7.47;;
37407;SDS011;24866;50.248;8.252;2023-06-10T08:39:01;8.93;;;7.85;;
37407;SDS011;24866;50.248;8.252;2023-06-10T08:41:32;13.40;;;7.78;;
37407;SDS011;24866;50.248;8.252;2023-06-10T08:44:08;9.68;;;7.88;;
37407;SDS011;24866;50.248;8.252;2023-06-10T08:46:41;8.25;;;7.38;;
37407;SDS011;24866;50.248;8.252;2023-06-10T08:49:17;8.05;;;6.80;;
37407;SDS011;24866;50.248;8.252;2023-06-10T08:51:49;8.15;;;6.93;;
37407;SDS011;24866;50.248;8.252;2023-06-10T08:54:21;11.65;;;6.57;;
37407;SDS011;24866;50.248;8.252;2023-06-10T08:56:55;8.60;;;7.75;;
37407;SDS011;24866;50.248;8.252;2023-06-10T08:59:26;10.45;;;7.47;;
37407;SDS011;24866;50.248;8.252;2023-06-10T09:01:56;11.45;;;7.47;;
37407;SDS011;24866;50.248;8.252;2023-06-10T09:04:26;7.70;;;6.72;;
37407;SDS011;24866;50.248;8.252;2023-06-10T09:06:56;7.43;;;6.03;;
37407;SDS011;24866;50.248;8.252;2023-06-10T09:09:28;7.35;;;6.07;;
37407;SDS011;24866;50.248;8.252;2023-06-10T09:11:59;11.52;;;6.20;;
37407;SDS011;24866;50.248;8.252;2023-06-10T09:14:29;9.00;;;5.80;;
37407;SDS011;24866;50.248;8.252;2023-06-10T09:16:59;8.80;;;5.10;;
37407;SDS011;24866;50.248;8.252;2023-06-10T09:19:29;7.10;;;5.30;;
37407;SDS011;24866;50.248;8.252;2023-06-10T09:21:59;10.10;;;5.45;;
37407;SDS011;24866;50.248;8.252;2023-06-10T09:24:30;7.13;;;4.35;;
37407;SDS011;24866;50.248;8.252;2023-06-10T09:27:04;6.03;;;4.87;;
37407;SDS011;24866;50.248;8.252;2023-06-10T09:29:45;7.32;;;5.95;;
37407;SDS011;24866;50.248;8.252;2023-06-10T09:32:15;10.00;;;5.10;;
37407;SDS011;24866;50.248;8.252;2023-06-10T09:34:47;6.97;;;5.03;;
37407;SDS011;24866;50.248;8.252;2023-06-10T09:37:22;5.82;;;4.25;;
37407;SDS011;24866;50.248;8.252;2023-06-10T09:40:02;7.70;;;4.57;;
37407;SDS011;24866;50.248;8.252;2023-06-10T09:42:33;7.20;;;4.93;;
37407;SDS011;24866;50.248;8.252;2023-06-10T09:45:04;9.80;;;4.95;;
37407;SDS011;24866;50.248;8.252;2023-06-10T09:47:36;7.38;;;4.53;;
37407;SDS011;24866;50.248;8.252;2023-06-10T09:50:06;14.32;;;4.80;;
37407;SDS011;24866;50.248;8.252;2023-06-10T09:52:36;7.38;;;5.13;;
37407;SDS011;24866;50.248;8.252;2023-06-10T09:55:09;8.18;;;4.57;;
37407;SDS011;24866;50.248;8.252;2023-06-10T09:57:39;8.52;;;5.05;;
37407;SDS011;24866;50.248;8.252;2023-06-10T10:00:13;6.32;;;4.95;;
37407;SDS011;24866;50.248;8.252;2023-06-10T10:02:45;7.88;;;4.63;;
37407;SDS011;24866;50.248;8.252;2023-06-10T10:05:17;9.23;;;4.43;;
37407;SDS011;24866;50.248;8.252;2023-06-10T10:07:47;5.47;;;4.47;;
37407;SDS011;24866;50.248;8.252;2023-06-10T10:10:20;8.27;;;4.72;;
37407;SDS011;24866;50.248;8.252;2023-06-10T10:12:51;6.95;;;4.30;;
37407;SDS011;24866;50.248;8.252;2023-06-10T10:15:27;8.75;;;4.60;;
37407;SDS011;24866;50.248;8.252;2023-06-10T10:18:03;5.82;;;4.78;;
37407;SDS011;24866;50.248;8.252;2023-06-10T10:20:43;5.97;;;4.15;;
37407;SDS011;24866;50.248;8.252;2023-06-10T10:23:21;7.60;;;4.10;;
37407;SDS011;24866;50.248;8.252;2023-06-10T10:26:00;4.65;;;4.10;;
37407;SDS011;24866;50.248;8.252;2023-06-10T10:28:37;8.23;;;4.80;;
37407;SDS011;24866;50.248;8.252;2023-06-10T10:31:12;7.28;;;5.05;;
37407;SDS011;24866;50.248;8.252;2023-06-10T10:33:51;6.50;;;4.50;;
37407;SDS011;24866;50.248;8.252;2023-06-10T10:36:24;5.90;;;4.53;;
37407;SDS011;24866;50.248;8.252;2023-06-10T10:38:54;7.03;;;4.10;;
37407;SDS011;24866;50.248;8.252;2023-06-10T10:41:28;6.95;;;4.38;;
37407;SDS011;24866;50.248;8.252;2023-06-10T10:43:59;7.00;;;4.90;;
37407;SDS011;24866;50.248;8.252;2023-06-10T10:46:30;5.82;;;4.72;;
37407;SDS011;24866;50.248;8.252;2023-06-10T10:49:10;14.23;;;4.75;;
37407;SDS011;24866;50.248;8.252;2023-06-10T10:51:55;9.95;;;4.65;;
37407;SDS011;24866;50.248;8.252;2023-06-10T10:54:29;8.13;;;4.75;;
37407;SDS011;24866;50.248;8.252;2023-06-10T10:57:11;11.23;;;4.93;;
37407;SDS011;24866;50.248;8.252;2023-06-10T10:59:50;7.60;;;5.03;;
37407;SDS011;24866;50.248;8.252;2023-06-10T11:02:33;9.02;;;4.45;;
37407;SDS011;24866;50.248;8.252;2023-06-10T11:05:11;9.50;;;4.80;;
37407;SDS011;24866;50.248;8.252;2023-06-10T11:07:51;8.57;;;5.03;;
37407;SDS011;24866;50.248;8.252;2023-06-10T11:10:28;8.05;;;5.32;;
37407;SDS011;24866;50.248;8.252;2023-06-10T11:13:02;8.38;;;5.25;;
37407;SDS011;24866;50.248;8.252;2023-06-10T11:15:39;6.40;;;5.25;;
37407;SDS011;24866;50.248;8.252;2023-06-10T11:18:13;5.50;;;4.78;;
37407;SDS011;24866;50.248;8.252;2023-06-10T11:20:45;7.80;;;4.55;;
37407;SDS011;24866;50.248;8.252;2023-06-10T11:26:12;8.55;;;5.13;;
37407;SDS011;24866;50.248;8.252;2023-06-10T11:29:09;6.50;;;4.65;;
37407;SDS011;24866;50.248;8.252;2023-06-10T11:31:40;6.82;;;4.78;;
37407;SDS011;24866;50.248;8.252;2023-06-10T11:34:12;6.18;;;3.95;;
37407;SDS011;24866;50.248;8.252;2023-06-10T11:36:43;8.43;;;4.70;;
37407;SDS011;24866;50.248;8.252;2023-06-10T11:39:14;6.63;;;4.95;;
37407;SDS011;24866;50.248;8.252;2023-06-10T11:41:45;8.27;;;4.35;;
37407;SDS011;24866;50.248;8.252;2023-06-10T11:44:16;5.80;;;3.97;;
37407;SDS011;24866;50.248;8.252;2023-06-10T11:46:47;8.52;;;4.07;;
37407;SDS011;24866;50.248;8.252;2023-06-10T11:49:20;5.85;;;4.20;;
37407;SDS011;24866;50.248;8.252;2023-06-10T11:51:50;6.40;;;4.13;;
37407;SDS011;24866;50.248;8.252;2023-06-10T11:54:20;10.50;;;4.90;;
37407;SDS011;24866;50.248;8.252;2023-06-10T11:56:56;4.72;;;3.80;;
37407;SDS011;24866;50.248;8.252;2023-06-10T11:59:28;7.55;;;4.30;;
37407;SDS011;24866;50.248;8.252;2023-06-10T12:01:59;9.07;;;4.53;;
37407;SDS011;24866;50.248;8.252;2023-06-10T12:04:29;6.05;;;4.20;;
37407;SDS011;24866;50.248;8.252;2023-06-10T12:06:59;5.47;;;4.20;;
37407;SDS011;24866;50.248;8.252;2023-06-10T12:09:29;5.13;;;3.80;;
37407;SDS011;24866;50.248;8.252;2023-06-10T12:12:01;6.60;;;3.50;;
37407;SDS011;24866;50.248;8.252;2023-06-10T12:14:53;8.23;;;4.07;;
37407;SDS011;24866;50.248;8.252;2023-06-10T12:17:35;6.10;;;4.03;;
37407;SDS011;24866;50.248;8.252;2023-06-10T12:20:06;4.95;;;3.53;;
37407;SDS011;24866;50.248;8.252;2023-06-10T12:22:51;8.02;;;3.88;;
37407;SDS011;24866;50.248;8.252;2023-06-10T12:25:24;6.57;;;3.42;;
37407;SDS011;24866;50.248;8.252;2023-06-10T12:27:57;5.00;;;3.42;;
37407;SDS011;24866;50.248;8.252;2023-06-10T12:30:30;5.60;;;3.70;;
37407;SDS011;24866;50.248;8.252;2023-06-10T12:33:01;8.07;;;3.63;;
37407;SDS011;24866;50.248;8.252;2023-06-10T12:35:31;4.63;;;3.50;;
37407;SDS011;24866;50.248;8.252;2023-06-10T12:38:01;5.40;;;3.55;;
37407;SDS011;24866;50.248;8.252;2023-06-10T12:40:36;6.38;;;3.95;;
37407;SDS011;24866;50.248;8.252;2023-06-10T12:43:08;5.50;;;3.88;;
37407;SDS011;24866;50.248;8.252;2023-06-10T12:45:42;5.65;;;3.78;;
37407;SDS011;24866;50.248;8.252;2023-06-10T12:48:17;7.35;;;4.05;;
37407;SDS011;24866;50.248;8.252;2023-06-10T12:50:50;6.25;;;3.75;;
37407;SDS011;24866;50.248;8.252;2023-06-10T12:53:21;6.57;;;3.97;;
37407;SDS011;24866;50.248;8.252;2023-06-10T12:55:52;4.72;;;4.15;;
37407;SDS011;24866;50.248;8.252;2023-06-10T12:58:22;6.25;;;4.53;;
37407;SDS011;24866;50.248;8.252;2023-06-10T13:00:54;4.90;;;3.78;;
37407;SDS011;24866;50.248;8.252;2023-06-10T13:05:54;11.48;;;4.47;;
37407;SDS011;24866;50.248;8.252;2023-06-10T13:08:25;5.28;;;4.00;;
37407;SDS011;24866;50.248;8.252;2023-06-10T13:10:56;6.55;;;4.13;;
37407;SDS011;24866;50.248;8.252;2023-06-10T13:13:27;6.38;;;4.28;;
37407;SDS011;24866;50.248;8.252;2023-06-10T13:16:00;6.55;;;3.83;;
37407;SDS011;24866;50.248;8.252;2023-06-10T13:18:30;5.95;;;3.60;;
37407;SDS011;24866;50.248;8.252;2023-06-10T13:21:05;6.10;;;4.18;;
37407;SDS011;24866;50.248;8.252;2023-06-10T13:23:35;5.22;;;4.38;;
37407;SDS011;24866;50.248;8.252;2023-06-10T13:26:05;4.95;;;3.83;;
37407;SDS011;24866;50.248;8.252;2023-06-10T13:28:36;5.43;;;3.63;;
37407;SDS011;24866;50.248;8.252;2023-06-10T13:31:09;8.32;;;4.32;;
37407;SDS011;24866;50.248;8.252;2023-06-10T13:33:40;6.55;;;4.03;;
37407;SDS011;24866;50.248;8.252;2023-06-10T13:36:11;6.53;;;4.47;;
37407;SDS011;24866;50.248;8.252;2023-06-10T13:38:42;6.78;;;4.30;;
37407;SDS011;24866;50.248;8.252;2023-06-10T13:41:13;6.82;;;4.63;;
37407;SDS011;24866;50.248;8.252;2023-06-10T13:43:45;8.27;;;5.07;;
37407;SDS011;24866;50.248;8.252;2023-06-10T13:46:18;8.40;;;4.68;;
37407;SDS011;24866;50.248;8.252;2023-06-10T13:48:50;5.55;;;4.28;;
37407;SDS011;24866;50.248;8.252;2023-06-10T13:51:20;7.18;;;4.40;;
37407;SDS011;24866;50.248;8.252;2023-06-10T13:53:50;7.13;;;4.10;;
37407;SDS011;24866;50.248;8.252;2023-06-10T13:56:20;5.35;;;4.40;;
37407;SDS011;24866;50.248;8.252;2023-06-10T13:58:51;9.88;;;4.75;;
37407;SDS011;24866;50.248;8.252;2023-06-10T14:01:22;9.13;;;4.93;;
37407;SDS011;24866;50.248;8.252;2023-06-10T14:03:52;6.60;;;4.88;;
37407;SDS011;24866;50.248;8.252;2023-06-10T14:06:22;5.80;;;4.90;;
37407;SDS011;24866;50.248;8.252;2023-06-10T14:08:52;5.85;;;4.50;;
37407;SDS011;24866;50.248;8.252;2023-06-10T14:11:22;6.03;;;4.30;;
37407;SDS011;24866;50.248;8.252;2023-06-10T14:13:52;7.47;;;4.38;;
37407;SDS011;24866;50.248;8.252;2023-06-10T14:16:25;8.02;;;4.90;;
37407;SDS011;24866;50.248;8.252;2023-06-10T14:18:55;7.57;;;4.70;;
37407;SDS011;24866;50.248;8.252;2023-06-10T14:21:25;6.57;;;4.60;;
37407;SDS011;24866;50.248;8.252;2023-06-10T14:23:55;7.15;;;4.68;;
37407;SDS011;24866;50.248;8.252;2023-06-10T14:26:25;7.70;;;5.57;;
37407;SDS011;24866;50.248;8.252;2023-06-10T14:28:55;6.68;;;5.00;;
37407;SDS011;24866;50.248;8.252;2023-06-10T14:31:26;7.18;;;5.15;;
37407;SDS011;24866;50.248;8.252;2023-06-10T14:33:56;7.23;;;4.90;;
37407;SDS011;24866;50.248;8.252;2023-06-10T14:36:26;7.18;;;5.18;;
37407;SDS011;24866;50.248;8.252;2023-06-10T14:38:56;7.68;;;4.63;;
37407;SDS011;24866;50.248;8.252;2023-06-10T14:41:26;8.32;;;5.25;;
37407;SDS011;24866;50.248;8.252;2023-06-10T14:43:57;5.75;;;4.63;;
37407;SDS011;24866;50.248;8.252;2023-06-10T14:46:29;6.85;;;4.70;;
37407;SDS011;24866;50.248;8.252;2023-06-10T14:48:58;5.83;;;4.60;;
37407;SDS011;24866;50.248;8.252;2023-06-10T14:51:30;8.05;;;5.22;;
37407;SDS011;24866;50.248;8.252;2023-06-10T14:54:00;5.72;;;4.45;;
37407;SDS011;24866;50.248;8.252;2023-06-10T14:56:30;5.30;;;4.80;;
37407;SDS011;24866;50.248;8.252;2023-06-10T14:59:00;6.68;;;4.88;;
37407;SDS011;24866;50.248;8.252;2023-06-10T15:01:32;6.35;;;4.80;;
37407;SDS011;24866;50.248;8.252;2023-06-10T15:04:01;9.57;;;4.87;;
37407;SDS011;24866;50.248;8.252;2023-06-10T15:06:31;5.78;;;4.40;;
37407;SDS011;24866;50.248;8.252;2023-06-10T15:09:01;6.93;;;4.50;;
37407;SDS011;24866;50.248;8.252;2023-06-10T15:11:31;6.60;;;4.30;;
37407;SDS011;24866;50.248;8.252;2023-06-10T15:14:01;7.60;;;4.22;;
37407;SDS011;24866;50.248;8.252;2023-06-10T15:16:33;4.78;;;3.97;;
37407;SDS011;24866;50.248;8.252;2023-06-10T15:19:03;6.00;;;4.47;;
37407;SDS011;24866;50.248;8.252;2023-06-10T15:21:34;5.60;;;4.82;;
37407;SDS011;24866;50.248;8.252;2023-06-10T15:24:05;8.98;;;4.10;;
37407;SDS011;24866;50.248;8.252;2023-06-10T15:26:36;5.82;;;4.47;;
37407;SDS011;24866;50.248;8.252;2023-06-10T15:29:06;7.32;;;4.78;;